Time;durP1;ratioP1;P1;durP2;ratioP2;P2;SDS_P1;SDS_P2;PMS_P1;PMS_P2;Temp;Humidity;BMP_temperature;BMP_pressure;BME280_temperature;BME280_humidity;BME280_pressure;Samples;Min_cycle;Max_cycle;Signal;HPM_P1;HPM_P2
2021/05/29 00:00:41;;;;;;;3.15;2.70;;;9.90;80.50;;;;;;5051482;28;20115;-81
2021/05/29 00:03:07;;;;;;;3.90;2.42;;;9.90;80.00;;;;;;5067283;28;20044;-81
2021/05/29 00:05:33;;;;;;;3.33;2.67;;;9.90;80.20;;;;;;5070346;28;20726;-80
2021/05/29 00:07:58;;;;;;;3.15;2.60;;;9.80;80.50;;;;;;5063163;28;20360;-80
2021/05/29 00:10:24;;;;;;;3.75;2.88;;;9.80;81.40;;;;;;5049803;28;21660;-81
2021/05/29 00:12:50;;;;;;;8.07;2.85;;;9.80;81.30;;;;;;5048468;28;20100;-81
2021/05/29 00:15:15;;;;;;;3.08;2.53;;;9.80;81.10;;;;;;5052655;28;20104;-81
2021/05/29 00:17:41;;;;;;;2.35;2.15;;;9.80;81.10;;;;;;5067965;28;20032;-81
2021/05/29 00:20:08;;;;;;;3.20;2.40;;;9.70;80.50;;;;;;5068578;28;20033;-80
2021/05/29 00:22:34;;;;;;;6.35;2.35;;;9.70;82.00;;;;;;5051135;28;20091;-80
2021/05/29 00:25:00;;;;;;;2.78;2.40;;;9.70;81.70;;;;;;5066454;28;20029;-81
2021/05/29 00:27:25;;;;;;;2.53;2.33;;;9.70;81.30;;;;;;5047490;28;20097;-80
2021/05/29 00:29:51;;;;;;;4.20;2.47;;;9.70;81.30;;;;;;5067848;28;20479;-81
2021/05/29 00:32:17;;;;;;;2.60;2.40;;;9.70;81.30;;;;;;5068492;28;20040;-80
2021/05/29 00:34:42;;;;;;;2.85;2.03;;;9.70;81.20;;;;;;5065432;28;20041;-81
2021/05/29 00:37:08;;;;;;;1.98;1.83;;;9.70;81.20;;;;;;5066001;28;20029;-81
2021/05/29 00:39:34;;;;;;;5.75;2.30;;;9.60;81.30;;;;;;5049963;28;20032;-81
2021/05/29 00:41:59;;;;;;;2.63;2.42;;;9.70;81.40;;;;;;5064559;28;20035;-81
2021/05/29 00:44:25;;;;;;;2.53;2.33;;;9.70;81.80;;;;;;5048380;28;20087;-81
2021/05/29 00:46:51;;;;;;;3.80;3.00;;;9.70;81.90;;;;;;5051354;28;20025;-80
2021/05/29 00:49:16;;;;;;;2.20;2.00;;;9.70;81.70;;;;;;5052188;28;20020;-81
2021/05/29 00:51:42;;;;;;;3.55;2.00;;;9.60;81.80;;;;;;5043056;28;20469;-81
2021/05/29 00:54:11;;;;;;;2.10;1.85;;;9.60;82.00;;;;;;5050505;28;20033;-81
2021/05/29 00:56:37;;;;;;;4.88;2.35;;;9.60;82.20;;;;;;5044901;28;20032;-80
2021/05/29 00:59:03;;;;;;;2.80;2.50;;;9.60;82.50;;;;;;5048367;28;20044;-81
2021/05/29 01:01:28;;;;;;;2.70;2.50;;;9.50;82.10;;;;;;5049381;28;20585;-81
2021/05/29 01:03:54;;;;;;;4.05;2.50;;;9.50;82.20;;;;;;5068927;28;20047;-80
2021/05/29 01:06:20;;;;;;;3.30;2.50;;;9.40;81.90;;;;;;5053805;28;20028;-80
2021/05/29 01:08:46;;;;;;;2.40;2.20;;;9.50;82.30;;;;;;5068983;28;20071;-80
2021/05/29 01:11:11;;;;;;;2.67;2.40;;;9.50;82.50;;;;;;5069164;28;20028;-81
2021/05/29 01:13:38;;;;;;;4.28;2.40;;;9.50;82.20;;;;;;5070747;28;20017;-80
2021/05/29 01:16:11;;;;;;;4.28;2.90;;;9.50;82.30;;;;;;5052512;28;20036;-81
2021/05/29 01:18:36;;;;;;;2.70;2.50;;;9.50;82.50;;;;;;5053178;28;20035;-81
2021/05/29 01:21:04;;;;;;;3.22;2.60;;;9.50;82.00;;;;;;5053336;28;20113;-81
2021/05/29 01:23:30;;;;;;;4.93;2.63;;;9.50;82.60;;;;;;5050069;28;20067;-81
2021/05/29 01:25:56;;;;;;;4.65;2.63;;;9.40;82.70;;;;;;5071853;28;20059;-81
2021/05/29 01:28:25;;;;;;;3.90;2.95;;;9.40;82.60;;;;;;5052217;28;20028;-81
2021/05/29 01:30:55;;;;;;;3.88;2.72;;;9.50;82.80;;;;;;5066188;28;20032;-81
2021/05/29 01:33:28;;;;;;;2.72;2.53;;;9.40;82.80;;;;;;5067781;28;20059;-80
2021/05/29 01:35:59;;;;;;;3.00;2.72;;;9.50;82.50;;;;;;5070582;28;20024;-81
2021/05/29 01:38:25;;;;;;;2.28;2.08;;;9.40;82.60;;;;;;5057087;28;20028;-81
2021/05/29 01:40:51;;;;;;;2.50;2.28;;;9.30;82.30;;;;;;5070861;28;20066;-80
2021/05/29 01:43:18;;;;;;;3.05;2.40;;;9.20;82.40;;;;;;5075755;28;20032;-81
2021/05/29 01:45:45;;;;;;;2.53;2.20;;;9.20;82.50;;;;;;5074709;28;20131;-81
2021/05/29 01:48:11;;;;;;;2.53;2.13;;;9.20;82.70;;;;;;5057794;28;20111;-81
2021/05/29 01:50:49;;;;;;;3.60;2.70;;;9.20;83.60;;;;;;5067650;28;20112;-80
2021/05/29 01:53:19;;;;;;;3.83;2.30;;;9.20;83.20;;;;;;5051540;28;20074;-80
2021/05/29 01:55:46;;;;;;;2.63;2.42;;;9.20;83.40;;;;;;5054952;28;20056;-81
2021/05/29 01:58:13;;;;;;;2.90;2.60;;;9.20;83.50;;;;;;5054195;28;20033;-80
2021/05/29 02:00:39;;;;;;;2.88;2.45;;;9.10;83.60;;;;;;5050286;28;20032;-80
2021/05/29 02:03:05;;;;;;;3.25;2.95;;;9.00;84.50;;;;;;5066992;28;20032;-80
2021/05/29 02:05:33;;;;;;;5.20;3.05;;;9.00;84.90;;;;;;5073733;28;20032;-80
2021/05/29 02:08:01;;;;;;;7.00;2.95;;;9.00;85.70;;;;;;5067729;28;20169;-81
2021/05/29 02:10:28;;;;;;;4.28;2.85;;;9.10;85.00;;;;;;5050429;28;20025;-80
2021/05/29 02:12:58;;;;;;;3.92;2.95;;;9.10;86.00;;;;;;5054639;28;20797;-81
2021/05/29 02:15:26;;;;;;;4.03;3.00;;;9.10;85.40;;;;;;5074927;28;20380;-81
2021/05/29 02:17:53;;;;;;;;;;;9.10;85.50;;;;;;5055240;28;20087;-81
2021/05/29 02:20:43;;;;;;;4.47;3.13;;;9.00;86.00;;;;;;5048949;28;19915;-80
2021/05/29 02:23:10;;;;;;;3.40;2.70;;;9.10;86.20;;;;;;5073310;28;20100;-80
2021/05/29 02:25:36;;;;;;;4.32;3.10;;;9.10;85.80;;;;;;5050464;28;20028;-81
2021/05/29 02:28:03;;;;;;;4.75;3.22;;;9.10;86.60;;;;;;5067551;28;20712;-80
2021/05/29 02:30:29;;;;;;;5.60;3.22;;;9.10;86.20;;;;;;5047959;28;20028;-81
2021/05/29 02:32:55;;;;;;;3.15;2.60;;;9.10;85.40;;;;;;5070488;28;20021;-81
2021/05/29 02:35:20;;;;;;;9.88;3.22;;;9.10;84.70;;;;;;5064476;28;20490;-81
2021/05/29 02:37:46;;;;;;;2.50;2.30;;;9.00;84.60;;;;;;5048803;28;20043;-81
2021/05/29 02:40:13;;;;;;;3.10;2.80;;;8.90;84.20;;;;;;5074190;28;20031;-81
2021/05/29 02:42:39;;;;;;;3.88;2.95;;;8.80;84.60;;;;;;5073907;28;20517;-80
2021/05/29 02:45:06;;;;;;;5.40;3.08;;;8.70;87.20;;;;;;5048210;28;20120;-80
2021/05/29 02:47:32;;;;;;;5.47;3.20;;;8.80;86.50;;;;;;5050728;28;20062;-80
2021/05/29 02:49:58;;;;;;;3.40;3.08;;;8.80;86.50;;;;;;5054058;28;20024;-80
2021/05/29 02:52:24;;;;;;;5.30;3.10;;;8.80;86.60;;;;;;5067982;28;20031;-80
2021/05/29 02:54:50;;;;;;;3.60;3.30;;;8.80;86.50;;;;;;5073170;28;20025;-81
2021/05/29 02:57:15;;;;;;;4.75;3.10;;;8.80;87.00;;;;;;5046649;28;20035;-81
2021/05/29 02:59:41;;;;;;;3.70;3.30;;;8.80;88.70;;;;;;5050235;28;20029;-81
2021/05/29 03:02:09;;;;;;;6.47;3.72;;;8.80;89.30;;;;;;5071669;28;20040;-81
2021/05/29 03:04:35;;;;;;;4.45;3.05;;;8.90;88.20;;;;;;5051642;28;20078;-81
2021/05/29 03:07:01;;;;;;;6.20;3.42;;;9.00;87.60;;;;;;5050989;28;20470;-81
2021/05/29 03:09:27;;;;;;;5.50;3.30;;;9.00;89.00;;;;;;5048419;28;20054;-80
2021/05/29 03:11:54;;;;;;;3.00;2.70;;;9.10;87.50;;;;;;5050533;28;20031;-80
2021/05/29 03:14:20;;;;;;;3.92;2.75;;;9.10;87.00;;;;;;5053551;28;20025;-82
2021/05/29 03:16:47;;;;;;;2.80;2.50;;;9.10;85.60;;;;;;5069875;28;20025;-80
2021/05/29 03:19:12;;;;;;;4.88;3.40;;;9.00;85.40;;;;;;5070013;28;20075;-81
2021/05/29 03:21:38;;;;;;;3.92;3.33;;;9.00;87.00;;;;;;5066757;28;20029;-80
2021/05/29 03:24:04;;;;;;;7.13;2.90;;;9.00;86.10;;;;;;5071345;28;20118;-80
2021/05/29 03:26:30;;;;;;;5.90;2.90;;;9.00;86.30;;;;;;5066488;28;20020;-80
2021/05/29 03:28:56;;;;;;;3.70;2.90;;;9.00;87.20;;;;;;5070678;28;20040;-80
2021/05/29 03:31:21;;;;;;;3.88;3.25;;;9.00;87.60;;;;;;5067493;28;20043;-80
2021/05/29 03:33:47;;;;;;;4.20;3.42;;;9.00;88.00;;;;;;5066155;28;20032;-81
2021/05/29 03:36:13;;;;;;;3.30;3.00;;;9.00;87.20;;;;;;5064247;28;20446;-80
2021/05/29 03:38:41;;;;;;;4.78;3.15;;;9.00;87.00;;;;;;5066614;28;20048;-81
2021/05/29 03:41:07;;;;;;;3.53;2.92;;;9.10;86.80;;;;;;5069797;28;20059;-81
2021/05/29 03:43:32;;;;;;;4.88;2.80;;;9.10;86.40;;;;;;5073537;28;20040;-81
2021/05/29 03:45:58;;;;;;;3.00;2.70;;;9.10;86.40;;;;;;5068734;28;20548;-81
2021/05/29 03:48:24;;;;;;;4.43;2.65;;;9.10;86.20;;;;;;5073619;28;20532;-81
2021/05/29 03:50:50;;;;;;;3.38;2.90;;;9.10;86.20;;;;;;5049957;28;20028;-81
2021/05/29 03:53:15;;;;;;;3.28;2.90;;;9.20;86.60;;;;;;5054391;28;20083;-80
2021/05/29 03:55:41;;;;;;;7.20;2.95;;;9.10;86.10;;;;;;5073340;28;20410;-81
2021/05/29 03:58:07;;;;;;;4.03;3.30;;;9.00;86.60;;;;;;5059650;28;20654;-81
2021/05/29 04:00:33;;;;;;;4.13;3.13;;;9.00;86.90;;;;;;5068712;28;20029;-81
2021/05/29 04:02:59;;;;;;;3.97;3.17;;;9.10;87.20;;;;;;5068100;28;20119;-81
2021/05/29 04:05:25;;;;;;;4.35;3.25;;;9.10;87.10;;;;;;5050850;28;20048;-80
2021/05/29 04:07:52;;;;;;;3.83;3.00;;;9.00;87.50;;;;;;5068374;28;20016;-81
2021/05/29 04:10:24;;;;;;;6.50;3.65;;;9.10;86.80;;;;;;5048007;28;20021;-81
2021/05/29 04:12:50;;;;;;;6.35;3.67;;;9.10;87.30;;;;;;5067655;28;20100;-81
2021/05/29 04:15:17;;;;;;;7.25;3.65;;;9.20;87.50;;;;;;5052257;28;20390;-82
2021/05/29 04:17:44;;;;;;;8.18;4.28;;;9.20;87.60;;;;;;5070102;28;20398;-81
2021/05/29 04:20:12;;;;;;;5.85;3.97;;;9.30;87.60;;;;;;5071408;28;20028;-81
2021/05/29 04:22:38;;;;;;;5.32;4.43;;;9.30;87.50;;;;;;5068467;28;20024;-80
2021/05/29 04:25:10;;;;;;;7.07;4.25;;;9.30;87.50;;;;;;5049508;28;20092;-80
2021/05/29 04:27:36;;;;;;;5.70;4.22;;;9.40;87.10;;;;;;5067573;28;20043;-81
2021/05/29 04:30:05;;;;;;;6.75;3.67;;;9.40;87.10;;;;;;5054286;28;20032;-81
2021/05/29 04:32:31;;;;;;;6.20;4.18;;;9.50;87.10;;;;;;5067918;28;20120;-80
2021/05/29 04:34:57;;;;;;;6.20;4.22;;;9.50;86.90;;;;;;5069492;28;20052;-80
2021/05/29 04:37:22;;;;;;;5.07;3.85;;;9.60;86.80;;;;;;5070444;28;20078;-81
2021/05/29 04:39:48;;;;;;;4.70;3.47;;;9.60;87.10;;;;;;5064429;28;20060;-81
2021/05/29 04:42:14;;;;;;;5.43;4.00;;;9.60;86.80;;;;;;5068174;28;20055;-81
2021/05/29 04:44:40;;;;;;;5.22;3.88;;;9.70;86.70;;;;;;5064704;28;20040;-81
2021/05/29 04:47:05;;;;;;;4.95;3.20;;;9.80;86.30;;;;;;5073381;28;20025;-81
2021/05/29 04:49:31;;;;;;;5.45;3.22;;;9.80;86.40;;;;;;5051406;28;20040;-80
2021/05/29 04:51:58;;;;;;;4.38;3.22;;;9.80;86.70;;;;;;5068433;28;20021;-81
2021/05/29 04:54:24;;;;;;;4.03;3.33;;;9.80;86.90;;;;;;5051884;28;20024;-81
2021/05/29 04:56:50;;;;;;;5.57;3.92;;;9.90;86.30;;;;;;5070210;28;20031;-81
2021/05/29 04:59:16;;;;;;;3.70;3.15;;;9.90;85.90;;;;;;5052935;28;20044;-81
2021/05/29 05:01:42;;;;;;;4.57;3.38;;;9.90;86.60;;;;;;5068458;28;20384;-80
2021/05/29 05:04:07;;;;;;;3.95;3.20;;;9.90;87.00;;;;;;5069222;28;20078;-81
2021/05/29 05:06:33;;;;;;;5.38;3.47;;;9.90;88.70;;;;;;5050734;28;20025;-80
2021/05/29 05:09:00;;;;;;;5.55;3.97;;;9.90;89.10;;;;;;5068409;28;20156;-81
2021/05/29 05:11:25;;;;;;;4.40;3.60;;;10.00;89.40;;;;;;5052885;28;20016;-81
2021/05/29 05:13:51;;;;;;;5.65;4.30;;;10.10;89.30;;;;;;5069485;28;20027;-80
2021/05/29 05:16:18;;;;;;;5.93;3.72;;;10.20;88.70;;;;;;5052849;28;20097;-80
2021/05/29 05:18:45;;;;;;;6.75;4.35;;;10.20;88.80;;;;;;5071110;28;20064;-81
2021/05/29 05:21:10;;;;;;;4.40;3.97;;;10.20;87.10;;;;;;5066156;28;20037;-81
2021/05/29 05:23:37;;;;;;;4.18;3.78;;;10.30;86.60;;;;;;5068597;28;20085;-80
2021/05/29 05:26:03;;;;;;;4.38;3.70;;;10.40;87.60;;;;;;5068970;28;20052;-80
2021/05/29 05:28:29;;;;;;;4.47;4.07;;;10.40;87.30;;;;;;5048475;28;20050;-81
2021/05/29 05:31:04;;;;;;;4.07;3.53;;;10.60;87.00;;;;;;5070113;28;20029;-81
2021/05/29 05:33:31;;;;;;;4.32;3.35;;;10.60;85.60;;;;;;5067483;28;20028;-81
2021/05/29 05:35:56;;;;;;;3.67;3.28;;;10.80;86.10;;;;;;5069743;28;20025;-81
2021/05/29 05:38:23;;;;;;;5.43;3.55;;;10.90;84.90;;;;;;5048504;28;20386;-81
2021/05/29 05:40:49;;;;;;;3.78;3.15;;;11.00;84.60;;;;;;5052002;28;20077;-81
2021/05/29 05:43:15;;;;;;;4.65;3.33;;;11.10;83.50;;;;;;5069070;28;20020;-80
2021/05/29 05:45:41;;;;;;;3.45;3.15;;;11.20;82.30;;;;;;5050428;28;20028;-81
2021/05/29 05:48:07;;;;;;;5.32;3.10;;;11.30;81.30;;;;;;5069916;28;20035;-81
2021/05/29 05:50:33;;;;;;;5.13;3.42;;;11.30;81.50;;;;;;5071671;28;20090;-81
2021/05/29 05:52:59;;;;;;;4.43;3.60;;;11.40;82.10;;;;;;5070589;28;20031;-81
2021/05/29 05:55:24;;;;;;;3.55;3.25;;;11.50;82.50;;;;;;5050798;28;20055;-81
2021/05/29 05:57:50;;;;;;;4.43;3.80;;;11.50;81.80;;;;;;5070069;28;20036;-80
2021/05/29 06:00:19;;;;;;;4.05;3.45;;;11.60;82.50;;;;;;5068804;28;20036;-81
2021/05/29 06:02:49;;;;;;;5.43;3.28;;;11.60;81.70;;;;;;5050087;28;20033;-81
2021/05/29 06:05:15;;;;;;;4.00;3.60;;;11.70;81.30;;;;;;5067450;28;20020;-81
2021/05/29 06:07:41;;;;;;;3.30;3.00;;;11.80;77.50;;;;;;5068822;28;20028;-81
2021/05/29 06:10:08;;;;;;;4.05;3.33;;;12.00;78.40;;;;;;5070785;28;20028;-81
2021/05/29 06:12:37;;;;;;;2.83;2.63;;;12.10;79.90;;;;;;5048792;28;20082;-81
2021/05/29 06:20:51;;;;;;;4.40;3.10;;;12.30;75.60;;;;;;5005738;28;20460;-81
2021/05/29 06:23:17;;;;;;;3.75;2.92;;;12.40;76.40;;;;;;5057820;28;20036;-81
2021/05/29 06:25:43;;;;;;;3.25;2.83;;;12.50;75.70;;;;;;5066605;28;20055;-77
2021/05/29 06:28:09;;;;;;;2.70;2.20;;;12.50;75.00;;;;;;5066532;28;20055;-82
2021/05/29 06:30:36;;;;;;;4.38;2.88;;;12.50;70.80;;;;;;5051656;28;20033;-81
2021/05/29 06:33:06;;;;;;;4.82;2.70;;;12.50;75.30;;;;;;5049031;28;20033;-81
2021/05/29 06:35:32;;;;;;;2.60;2.40;;;12.50;75.00;;;;;;5049590;28;20036;-81
2021/05/29 06:37:59;;;;;;;4.25;2.50;;;12.60;71.30;;;;;;5045364;28;20039;-82
2021/05/29 06:40:25;;;;;;;4.97;2.67;;;12.60;72.00;;;;;;5065867;28;20040;-81
2021/05/29 06:42:51;;;;;;;3.28;2.63;;;12.60;72.10;;;;;;5049606;28;20428;-81
2021/05/29 06:45:17;;;;;;;4.78;2.67;;;12.70;74.30;;;;;;5066021;28;20032;-81
2021/05/29 06:47:43;;;;;;;3.78;2.38;;;12.70;72.30;;;;;;5070110;28;20036;-81
2021/05/29 06:50:09;;;;;;;3.42;2.40;;;12.70;72.10;;;;;;5068613;28;20025;-81
2021/05/29 06:52:38;;;;;;;3.55;2.85;;;12.70;73.80;;;;;;5048521;28;20025;-81
2021/05/29 07:00:35;;;;;;;2.40;2.20;;;12.80;72.00;;;;;;5072059;28;20718;-81
2021/05/29 07:03:01;;;;;;;2.47;2.03;;;12.90;71.30;;;;;;5069601;28;20036;-81
2021/05/29 07:05:26;;;;;;;3.50;2.55;;;12.90;71.90;;;;;;5074033;28;20063;-81
2021/05/29 07:07:52;;;;;;;2.55;2.05;;;13.00;71.80;;;;;;5067565;28;20158;-81
2021/05/29 07:10:18;;;;;;;2.60;2.30;;;13.10;71.80;;;;;;5078470;28;20399;-81
2021/05/29 07:12:43;;;;;;;2.47;2.20;;;13.10;68.60;;;;;;5051772;28;20035;-81
2021/05/29 07:15:09;;;;;;;3.30;2.10;;;13.10;67.00;;;;;;5072706;28;20478;-81
2021/05/29 07:17:40;;;;;;;3.28;2.17;;;13.10;64.60;;;;;;5068866;28;20116;-81
2021/05/29 07:20:07;;;;;;;4.50;2.20;;;13.10;65.80;;;;;;5068338;28;20034;-81
2021/05/29 07:22:34;;;;;;;5.43;2.08;;;13.20;65.80;;;;;;5052808;28;20135;-80
2021/05/29 07:25:00;;;;;;;2.47;2.20;;;13.10;66.40;;;;;;5067143;28;20029;-81
2021/05/29 07:27:26;;;;;;;2.50;2.30;;;13.20;69.40;;;;;;5051161;28;20109;-80
2021/05/29 07:29:51;;;;;;;5.95;2.40;;;13.30;67.90;;;;;;5049461;28;20088;-80
2021/05/29 07:32:17;;;;;;;2.80;2.00;;;13.40;71.70;;;;;;5068274;28;20059;-81
2021/05/29 07:34:42;;;;;;;2.22;2.03;;;13.60;68.70;;;;;;5048201;28;20275;-82
2021/05/29 07:37:08;;;;;;;3.88;2.08;;;13.60;66.90;;;;;;5068999;28;20035;-81
2021/05/29 07:39:35;;;;;;;2.25;2.05;;;13.60;67.00;;;;;;5047937;28;20056;-80
2021/05/29 07:42:01;;;;;;;4.00;2.28;;;13.60;66.60;;;;;;5077543;28;20036;-82
2021/05/29 07:44:27;;;;;;;2.63;1.80;;;13.70;67.60;;;;;;5069716;28;20379;-80
2021/05/29 07:46:52;;;;;;;2.28;1.92;;;13.90;65.90;;;;;;5048805;28;20038;-77
2021/05/29 07:49:18;;;;;;;2.90;2.00;;;14.00;63.80;;;;;;5066703;28;20486;-78
2021/05/29 07:51:44;;;;;;;2.22;1.90;;;14.10;63.50;;;;;;5071242;28;20051;-77
2021/05/29 07:54:11;;;;;;;2.38;2.00;;;14.00;61.20;;;;;;5068380;28;20051;-77
2021/05/29 07:56:37;;;;;;;2.10;1.60;;;14.00;59.50;;;;;;5065877;28;20041;-78
2021/05/29 07:59:21;;;;;;;2.20;2.00;;;14.00;59.60;;;;;;5064501;28;20131;-78
2021/05/29 08:01:47;;;;;;;3.15;1.98;;;14.20;60.00;;;;;;5068785;28;20472;-78
2021/05/29 08:04:14;;;;;;;2.83;1.98;;;14.20;60.00;;;;;;5063761;28;20029;-77
2021/05/29 08:06:40;;;;;;;2.28;2.00;;;14.20;59.50;;;;;;5070779;28;20178;-78
2021/05/29 08:09:06;;;;;;;5.25;2.08;;;14.20;59.90;;;;;;5068885;28;20393;-77
2021/05/29 08:11:38;;;;;;;3.60;2.10;;;14.30;59.30;;;;;;5068629;28;20462;-78
2021/05/29 08:14:06;;;;;;;3.17;1.98;;;14.40;60.10;;;;;;5066664;28;20040;-78
2021/05/29 08:16:32;;;;;;;2.45;2.15;;;14.50;60.40;;;;;;5068872;28;20119;-77
2021/05/29 08:18:58;;;;;;;2.55;1.77;;;14.60;60.20;;;;;;5067304;28;20413;-78
2021/05/29 08:21:24;;;;;;;2.30;2.00;;;14.80;57.90;;;;;;5069837;28;20063;-78
2021/05/29 08:23:50;;;;;;;2.22;2.03;;;14.90;57.00;;;;;;5046596;28;20063;-78
2021/05/29 08:26:16;;;;;;;2.00;1.80;;;15.00;58.00;;;;;;5067535;28;20025;-78
2021/05/29 08:28:44;;;;;;;3.08;2.28;;;15.20;59.30;;;;;;5069463;28;20020;-79
2021/05/29 08:31:10;;;;;;;5.03;2.20;;;15.20;57.60;;;;;;5071461;28;20029;-79
2021/05/29 08:33:36;;;;;;;1.90;1.80;;;15.40;58.10;;;;;;5058479;28;20024;-79
2021/05/29 08:36:03;;;;;;;4.35;2.25;;;15.30;55.40;;;;;;5062964;28;20035;-78
2021/05/29 08:38:28;;;;;;;3.25;2.35;;;15.30;54.50;;;;;;5065552;28;20112;-78
2021/05/29 08:40:54;;;;;;;2.13;1.75;;;15.30;55.40;;;;;;5076392;28;20119;-82
2021/05/29 08:43:20;;;;;;;2.20;2.00;;;15.50;56.80;;;;;;5075309;28;20087;-80
2021/05/29 08:45:46;;;;;;;1.83;1.70;;;15.50;56.10;;;;;;5059560;28;20476;-81
2021/05/29 08:48:12;;;;;;;2.38;1.92;;;15.70;58.50;;;;;;5055223;28;20032;-82
2021/05/29 08:51:12;;;;;;;3.15;1.98;;;15.90;58.60;;;;;;5056240;28;20049;-82
2021/05/29 08:53:23;;;;;;;2.63;1.95;;;16.00;58.30;;;;;;5076979;28;20029;-83
2021/05/29 08:55:50;;;;;;;2.10;1.90;;;16.10;54.80;;;;;;5053474;28;20027;-81
2021/05/29 08:58:15;;;;;;;5.32;1.88;;;16.00;58.60;;;;;;5054644;28;20043;-82
2021/05/29 09:00:41;;;;;;;2.35;2.05;;;16.10;56.30;;;;;;5070799;28;20044;-79
2021/05/29 09:03:11;;;;;;;2.30;2.10;;;16.00;55.20;;;;;;5066495;28;20040;-80
2021/05/29 09:05:54;;;;;;;2.22;2.03;;;16.00;58.00;;;;;;5064963;28;20082;-80
2021/05/29 09:08:23;;;;;;;2.22;2.03;;;15.70;54.10;;;;;;5069605;28;20067;-79
2021/05/29 09:10:55;;;;;;;2.15;2.03;;;15.50;55.60;;;;;;5046763;28;20021;-82
2021/05/29 09:13:28;;;;;;;2.38;2.17;;;15.40;58.80;;;;;;5068178;28;20021;-82
2021/05/29 09:16:04;;;;;;;2.97;2.10;;;15.20;58.70;;;;;;5068317;28;20198;-81
2021/05/29 09:18:33;;;;;;;2.67;1.90;;;15.30;58.40;;;;;;5046113;28;20085;-78
2021/05/29 09:21:20;;;;;;;2.28;2.08;;;15.60;58.40;;;;;;5059098;28;20037;-77
2021/05/29 09:23:55;;;;;;;2.87;2.03;;;15.90;59.20;;;;;;5064074;28;20032;-77
2021/05/29 09:26:38;;;;;;;3.60;2.53;;;16.10;57.80;;;;;;5066437;28;20502;-78
2021/05/29 09:29:19;;;;;;;2.25;2.08;;;16.10;54.30;;;;;;5059959;28;20017;-78
2021/05/29 09:32:07;;;;;;;2.53;2.15;;;16.20;53.10;;;;;;5067707;28;20465;-79
2021/05/29 09:34:42;;;;;;;;;;;16.30;56.50;;;;;;5067099;28;20024;-78
2021/05/29 09:37:13;;;;;;;1.75;1.65;;;16.40;55.30;;;;;;5070018;28;21623;-77
2021/05/29 09:39:41;;;;;;;2.25;1.80;;;16.60;53.30;;;;;;5054185;28;20107;-77
2021/05/29 09:42:08;;;;;;;3.17;1.98;;;16.60;53.80;;;;;;5072906;28;20090;-77
2021/05/29 09:44:35;;;;;;;2.13;1.87;;;16.70;52.50;;;;;;5072635;28;20055;-78
2021/05/29 09:47:04;;;;;;;2.67;1.98;;;16.80;54.80;;;;;;5067143;28;20410;-78
2021/05/29 09:49:48;;;;;;;1.98;1.73;;;16.70;53.60;;;;;;5068480;28;20074;-77
2021/05/29 09:52:37;;;;;;;2.85;2.10;;;16.90;56.90;;;;;;5050777;28;20224;-77
2021/05/29 09:55:06;;;;;;;1.73;1.63;;;17.00;52.50;;;;;;5061900;28;20056;-78
2021/05/29 09:57:48;;;;;;;2.15;1.60;;;17.00;54.10;;;;;;5061942;28;20036;-77
2021/05/29 10:00:14;;;;;;;2.25;2.00;;;17.00;52.30;;;;;;5065087;28;20119;-77
2021/05/29 10:02:57;;;;;;;2.92;1.63;;;17.10;51.50;;;;;;5072423;28;20025;-76
2021/05/29 10:05:32;;;;;;;2.67;2.00;;;16.90;46.90;;;;;;5054003;28;20031;-76
2021/05/29 10:07:58;;;;;;;2.63;1.67;;;17.00;48.00;;;;;;5068627;28;20081;-77
2021/05/29 10:10:24;;;;;;;1.58;1.48;;;17.10;53.00;;;;;;5057767;28;20028;-77
2021/05/29 10:12:50;;;;;;;1.50;1.40;;;17.30;50.40;;;;;;5075033;28;20381;-76
2021/05/29 10:15:17;;;;;;;4.20;1.65;;;17.30;50.30;;;;;;5068959;28;20178;-77
2021/05/29 10:17:44;;;;;;;1.25;1.20;;;17.50;50.20;;;;;;5074365;28;20036;-77
2021/05/29 10:20:11;;;;;;;1.63;1.48;;;17.40;46.20;;;;;;5076889;28;20093;-77
2021/05/29 10:22:36;;;;;;;3.03;1.30;;;17.50;49.20;;;;;;5077531;28;20442;-77
2021/05/29 10:25:10;;;;;;;1.63;1.20;;;17.40;45.50;;;;;;5058527;28;20063;-76
2021/05/29 10:27:36;;;;;;;1.40;1.30;;;17.50;51.00;;;;;;5062460;28;20550;-77
2021/05/29 10:30:04;;;;;;;1.63;1.33;;;17.60;49.50;;;;;;5075658;28;20028;-78
2021/05/29 10:32:29;;;;;;;1.23;1.17;;;17.60;48.30;;;;;;5084818;28;20370;-76
2021/05/29 10:35:00;;;;;;;1.30;1.20;;;17.60;45.00;;;;;;5056793;28;20024;-77
2021/05/29 10:37:31;;;;;;;3.42;1.50;;;17.50;47.30;;;;;;5084079;28;20382;-76
2021/05/29 10:40:27;;;;;;;1.38;1.27;;;17.50;41.80;;;;;;5085544;28;20024;-77
2021/05/29 10:43:13;;;;;;;2.15;1.58;;;17.50;44.80;;;;;;5040758;28;20048;-76
2021/05/29 10:45:50;;;;;;;1.60;1.50;;;17.50;50.70;;;;;;5054604;28;20387;-77
2021/05/29 10:48:26;;;;;;;1.67;1.25;;;17.60;46.10;;;;;;5074141;28;20458;-77
2021/05/29 10:51:13;;;;;;;1.77;1.27;;;17.60;45.20;;;;;;5071044;28;20017;-79
2021/05/29 10:53:38;;;;;;;1.25;1.15;;;17.80;48.90;;;;;;5072525;28;20029;-80
2021/05/29 10:56:18;;;;;;;1.35;1.25;;;17.40;45.80;;;;;;5064988;28;20052;-80
2021/05/29 10:59:17;;;;;;;2.08;1.52;;;17.10;43.30;;;;;;5051751;28;20640;-79
2021/05/29 11:01:44;;;;;;;1.30;1.20;;;17.10;46.40;;;;;;5071620;28;20037;-79
2021/05/29 11:04:16;;;;;;;1.88;1.40;;;16.90;46.50;;;;;;5066581;28;20369;-79
2021/05/29 11:06:43;;;;;;;2.63;1.85;;;16.80;47.80;;;;;;5063221;28;20051;-79
2021/05/29 11:09:13;;;;;;;1.08;1.08;;;16.80;48.20;;;;;;5066673;28;20075;-79
2021/05/29 11:11:47;;;;;;;2.22;1.40;;;16.80;47.20;;;;;;5071414;28;20099;-80
2021/05/29 11:14:14;;;;;;;4.60;1.20;;;17.00;50.60;;;;;;5073296;28;20020;-80
2021/05/29 11:16:46;;;;;;;1.13;1.10;;;17.30;51.20;;;;;;5069182;28;20024;-80
2021/05/29 11:19:17;;;;;;;1.40;1.30;;;17.20;49.30;;;;;;5055818;28;20063;-79
2021/05/29 11:22:04;;;;;;;1.60;1.48;;;17.00;48.70;;;;;;5066365;28;20081;-80
2021/05/29 11:24:33;;;;;;;5.57;1.50;;;16.90;49.80;;;;;;5069506;28;20024;-80
2021/05/29 11:26:59;;;;;;;1.30;1.20;;;16.60;48.50;;;;;;5067095;28;20486;-80
2021/05/29 11:29:25;;;;;;;1.23;1.20;;;16.50;50.60;;;;;;5065760;28;20020;-80
2021/05/29 11:31:53;;;;;;;1.50;1.30;;;16.40;50.10;;;;;;5045245;28;20056;-79
2021/05/29 11:34:18;;;;;;;1.60;1.17;;;16.30;51.50;;;;;;5054012;28;20128;-80
2021/05/29 11:36:44;;;;;;;1.48;1.38;;;16.30;50.00;;;;;;5057147;28;20043;-79
2021/05/29 11:39:17;;;;;;;1.80;1.13;;;16.30;49.50;;;;;;5072562;28;20028;-79
2021/05/29 11:41:43;;;;;;;3.15;1.38;;;16.20;47.70;;;;;;5072873;28;20029;-80
2021/05/29 11:44:20;;;;;;;1.58;1.48;;;16.20;51.30;;;;;;5051870;28;20028;-79
2021/05/29 11:46:46;;;;;;;1.85;1.33;;;16.20;50.70;;;;;;5068304;28;20034;-79
2021/05/29 11:49:13;;;;;;;1.55;1.45;;;16.50;52.00;;;;;;5051573;28;20501;-79
2021/05/29 11:51:44;;;;;;;1.40;1.30;;;16.70;52.40;;;;;;5066616;28;20021;-79
2021/05/29 11:54:19;;;;;;;1.98;1.38;;;17.00;51.20;;;;;;5051453;28;20115;-79
2021/05/29 11:56:50;;;;;;;1.60;1.50;;;17.10;46.70;;;;;;5072006;28;20024;-79
2021/05/29 11:59:20;;;;;;;1.27;1.15;;;17.10;47.80;;;;;;5067269;28;20082;-79
2021/05/29 12:01:48;;;;;;;1.35;1.25;;;17.10;48.40;;;;;;5065405;28;20123;-80
2021/05/29 12:04:16;;;;;;;1.40;1.33;;;17.20;49.80;;;;;;5047662;28;20115;-81
2021/05/29 12:06:42;;;;;;;1.33;1.08;;;17.00;45.30;;;;;;5048757;28;20032;-80
2021/05/29 12:09:15;;;;;;;1.23;0.90;;;16.90;47.60;;;;;;5069715;28;20107;-80
2021/05/29 12:11:56;;;;;;;1.20;0.93;;;16.60;47.00;;;;;;5067994;28;20025;-79
2021/05/29 12:14:22;;;;;;;1.48;1.17;;;16.50;47.10;;;;;;5068601;28;20455;-80
2021/05/29 12:17:08;;;;;;;1.58;1.05;;;16.30;49.10;;;;;;5068651;28;20023;-79
2021/05/29 12:19:38;;;;;;;1.30;1.02;;;16.30;51.10;;;;;;5028032;28;20063;-78
2021/05/29 12:22:25;;;;;;;1.88;1.10;;;16.30;49.50;;;;;;5068231;28;20126;-78
2021/05/29 12:24:51;;;;;;;0.93;0.93;;;16.30;49.50;;;;;;5046656;28;20020;-80
2021/05/29 12:27:26;;;;;;;1.27;1.17;;;16.30;46.00;;;;;;5067872;28;20032;-78
2021/05/29 12:30:04;;;;;;;2.17;1.08;;;16.40;48.20;;;;;;5065792;28;20054;-78
2021/05/29 12:32:32;;;;;;;0.93;0.93;;;16.50;46.60;;;;;;5063835;28;20036;-81
2021/05/29 12:34:58;;;;;;;;;;;16.60;43.40;;;;;;5068626;28;20487;-79
2021/05/29 12:37:26;;;;;;;1.88;1.10;;;16.60;43.50;;;;;;5057094;28;19911;-80
2021/05/29 12:40:12;;;;;;;1.95;1.10;;;16.80;46.20;;;;;;5065188;28;20020;-79
2021/05/29 12:42:41;;;;;;;1.48;0.95;;;16.80;45.00;;;;;;5066981;28;20028;-80
2021/05/29 12:45:07;;;;;;;1.02;1.00;;;17.00;47.00;;;;;;5072465;28;20044;-81
2021/05/29 12:47:35;;;;;;;1.83;1.10;;;17.20;52.40;;;;;;5072177;28;20064;-80
2021/05/29 12:50:15;;;;;;;1.13;1.10;;;17.20;48.50;;;;;;5069791;28;20043;-79
2021/05/29 12:52:41;;;;;;;0.90;0.90;;;17.00;48.00;;;;;;5069197;28;20103;-79
2021/05/29 12:55:15;;;;;;;1.55;1.10;;;16.70;47.60;;;;;;5047598;28;20040;-80
2021/05/29 12:57:45;;;;;;;1.02;1.00;;;16.50;47.50;;;;;;5067167;28;20036;-80
2021/05/29 13:09:03;;;;;;;1.20;1.00;;;16.40;49.60;;;;;;5074065;28;20111;-82
2021/05/29 13:11:31;;;;;;;3.13;1.10;;;16.30;46.90;;;;;;5049721;28;20016;-81
2021/05/29 13:14:01;;;;;;;1.17;0.90;;;16.30;48.40;;;;;;5074033;28;20123;-80
2021/05/29 13:16:27;;;;;;;1.05;1.00;;;16.20;47.10;;;;;;5068417;28;20082;-79
2021/05/29 13:19:04;;;;;;;1.00;1.00;;;16.10;51.40;;;;;;5051256;28;20029;-80